sensor_id;sensor_type;location;lat;lon;timestamp;P1;durP1;ratioP1;P2;durP2;ratioP2
10811;SDS011;5458;51.496;7.334;2023-04-03T00:00:41;9.85;;;8.60;;
10811;SDS011;5458;51.496;7.334;2023-04-03T00:03:07;10.27;;;8.65;;
10811;SDS011;5458;51.496;7.334;2023-04-03T00:05:33;9.68;;;8.50;;
10811;SDS011;5458;51.496;7.334;2023-04-03T00:07:58;13.00;;;8.82;;
10811;SDS011;5458;51.496;7.334;2023-04-03T00:10:25;12.68;;;8.20;;
10811;SDS011;5458;51.496;7.334;2023-04-03T00:12:50;9.27;;;8.30;;
10811;SDS011;5458;51.496;7.334;2023-04-03T00:15:16;9.40;;;8.20;;
10811;SDS011;5458;51.496;7.334;2023-04-03T00:17:42;9.98;;;9.05;;
10811;SDS011;5458;51.496;7.334;2023-04-03T00:20:07;11.32;;;9.13;;
10811;SDS011;5458;51.496;7.334;2023-04-03T00:22:33;14.05;;;9.48;;
10811;SDS011;5458;51.496;7.334;2023-04-03T00:24:59;9.55;;;8.60;;
10811;SDS011;5458;51.496;7.334;2023-04-03T00:27:25;9.00;;;8.10;;
10811;SDS011;5458;51.496;7.334;2023-04-03T00:29:51;9.45;;;8.52;;
10811;SDS011;5458;51.496;7.334;2023-04-03T00:32:16;9.82;;;8.82;;
10811;SDS011;5458;51.496;7.334;2023-04-03T00:34:42;10.07;;;9.07;;
10811;SDS011;5458;51.496;7.334;2023-04-03T00:37:08;10.23;;;9.20;;
10811;SDS011;5458;51.496;7.334;2023-04-03T00:39:33;12.15;;;9.88;;
10811;SDS011;5458;51.496;7.334;2023-04-03T00:41:59;10.43;;;9.15;;
10811;SDS011;5458;51.496;7.334;2023-04-03T00:46:53;9.73;;;8.83;;
10811;SDS011;5458;51.496;7.334;2023-04-03T00:49:19;10.25;;;8.73;;
10811;SDS011;5458;51.496;7.334;2023-04-03T00:51:45;10.20;;;9.17;;
10811;SDS011;5458;51.496;7.334;2023-04-03T00:54:10;10.43;;;9.27;;
10811;SDS011;5458;51.496;7.334;2023-04-03T00:56:37;10.77;;;9.57;;
10811;SDS011;5458;51.496;7.334;2023-04-03T00:59:25;10.50;;;8.80;;
10811;SDS011;5458;51.496;7.334;2023-04-03T01:01:52;11.68;;;10.02;;
10811;SDS011;5458;51.496;7.334;2023-04-03T01:06:58;12.03;;;10.93;;
10811;SDS011;5458;51.496;7.334;2023-04-03T01:09:27;14.40;;;10.95;;
10811;SDS011;5458;51.496;7.334;2023-04-03T01:11:54;13.38;;;11.13;;
10811;SDS011;5458;51.496;7.334;2023-04-03T01:14:42;12.13;;;10.87;;
10811;SDS011;5458;51.496;7.334;2023-04-03T01:25:32;12.60;;;11.13;;
10811;SDS011;5458;51.496;7.334;2023-04-03T01:27:59;16.40;;;11.32;;
10811;SDS011;5458;51.496;7.334;2023-04-03T01:30:26;11.80;;;10.60;;
10811;SDS011;5458;51.496;7.334;2023-04-03T01:32:55;13.73;;;11.10;;
10811;SDS011;5458;51.496;7.334;2023-04-03T01:35:22;11.90;;;10.75;;
10811;SDS011;5458;51.496;7.334;2023-04-03T01:37:47;12.80;;;10.65;;
10811;SDS011;5458;51.496;7.334;2023-04-03T01:40:13;11.68;;;9.60;;
10811;SDS011;5458;51.496;7.334;2023-04-03T01:42:38;10.53;;;9.43;;
10811;SDS011;5458;51.496;7.334;2023-04-03T01:45:04;12.70;;;9.95;;
10811;SDS011;5458;51.496;7.334;2023-04-03T01:47:30;12.35;;;11.02;;
10811;SDS011;5458;51.496;7.334;2023-04-03T01:49:56;11.60;;;10.38;;
10811;SDS011;5458;51.496;7.334;2023-04-03T01:52:21;12.43;;;9.05;;
10811;SDS011;5458;51.496;7.334;2023-04-03T01:54:47;10.80;;;9.70;;
10811;SDS011;5458;51.496;7.334;2023-04-03T01:57:12;9.60;;;8.37;;
10811;SDS011;5458;51.496;7.334;2023-04-03T01:59:40;10.33;;;8.83;;
10811;SDS011;5458;51.496;7.334;2023-04-03T02:02:06;9.50;;;7.97;;
10811;SDS011;5458;51.496;7.334;2023-04-03T02:04:32;9.73;;;8.77;;
10811;SDS011;5458;51.496;7.334;2023-04-03T02:06:57;10.30;;;8.63;;
10811;SDS011;5458;51.496;7.334;2023-04-03T02:09:23;10.70;;;7.60;;
10811;SDS011;5458;51.496;7.334;2023-04-03T02:11:49;8.25;;;7.47;;
10811;SDS011;5458;51.496;7.334;2023-04-03T02:14:14;7.97;;;7.13;;
10811;SDS011;5458;51.496;7.334;2023-04-03T02:16:40;9.70;;;6.57;;
10811;SDS011;5458;51.496;7.334;2023-04-03T02:19:06;7.38;;;6.70;;
10811;SDS011;5458;51.496;7.334;2023-04-03T02:21:31;9.55;;;6.43;;
10811;SDS011;5458;51.496;7.334;2023-04-03T02:23:57;7.57;;;6.40;;
10811;SDS011;5458;51.496;7.334;2023-04-03T02:26:23;6.53;;;5.93;;
10811;SDS011;5458;51.496;7.334;2023-04-03T02:28:48;6.70;;;5.20;;
10811;SDS011;5458;51.496;7.334;2023-04-03T02:31:14;6.90;;;4.93;;
10811;SDS011;5458;51.496;7.334;2023-04-03T02:33:40;6.20;;;4.32;;
10811;SDS011;5458;51.496;7.334;2023-04-03T02:36:06;5.38;;;4.85;;
10811;SDS011;5458;51.496;7.334;2023-04-03T02:38:32;9.75;;;4.60;;
10811;SDS011;5458;51.496;7.334;2023-04-03T02:41:01;6.68;;;4.68;;
10811;SDS011;5458;51.496;7.334;2023-04-03T02:43:28;5.05;;;4.45;;
10811;SDS011;5458;51.496;7.334;2023-04-03T02:45:54;5.72;;;5.00;;
10811;SDS011;5458;51.496;7.334;2023-04-03T02:48:20;5.13;;;4.55;;
10811;SDS011;5458;51.496;7.334;2023-04-03T02:50:46;6.93;;;4.77;;
10811;SDS011;5458;51.496;7.334;2023-04-03T02:53:11;6.30;;;5.00;;
10811;SDS011;5458;51.496;7.334;2023-04-03T02:55:37;6.50;;;4.68;;
10811;SDS011;5458;51.496;7.334;2023-04-03T02:58:02;8.03;;;4.63;;
10811;SDS011;5458;51.496;7.334;2023-04-03T03:00:28;4.78;;;4.25;;
10811;SDS011;5458;51.496;7.334;2023-04-03T03:02:54;6.82;;;4.53;;
10811;SDS011;5458;51.496;7.334;2023-04-03T03:05:20;4.70;;;4.38;;
10811;SDS011;5458;51.496;7.334;2023-04-03T03:07:46;4.33;;;3.93;;
10811;SDS011;5458;51.496;7.334;2023-04-03T03:10:12;5.30;;;4.35;;
10811;SDS011;5458;51.496;7.334;2023-04-03T03:12:38;5.53;;;4.07;;
10811;SDS011;5458;51.496;7.334;2023-04-03T03:15:03;3.90;;;3.60;;
10811;SDS011;5458;51.496;7.334;2023-04-03T03:17:29;6.40;;;4.10;;
10811;SDS011;5458;51.496;7.334;2023-04-03T03:19:55;4.17;;;3.20;;
10811;SDS011;5458;51.496;7.334;2023-04-03T03:22:20;10.00;;;3.35;;
10811;SDS011;5458;51.496;7.334;2023-04-03T03:24:46;4.40;;;3.28;;
10811;SDS011;5458;51.496;7.334;2023-04-03T03:27:12;6.20;;;3.23;;
10811;SDS011;5458;51.496;7.334;2023-04-03T03:29:37;5.78;;;3.17;;
10811;SDS011;5458;51.496;7.334;2023-04-03T03:32:03;5.72;;;3.10;;
10811;SDS011;5458;51.496;7.334;2023-04-03T03:34:29;4.88;;;3.15;;
10811;SDS011;5458;51.496;7.334;2023-04-03T03:36:55;5.47;;;2.90;;
10811;SDS011;5458;51.496;7.334;2023-04-03T03:39:21;4.60;;;3.13;;
10811;SDS011;5458;51.496;7.334;2023-04-03T03:41:46;5.10;;;3.40;;
10811;SDS011;5458;51.496;7.334;2023-04-03T03:44:12;5.37;;;3.37;;
10811;SDS011;5458;51.496;7.334;2023-04-03T03:46:38;4.03;;;3.20;;
10811;SDS011;5458;51.496;7.334;2023-04-03T03:49:03;4.22;;;3.05;;
10811;SDS011;5458;51.496;7.334;2023-04-03T03:51:29;3.30;;;3.00;;
10811;SDS011;5458;51.496;7.334;2023-04-03T03:53:54;3.80;;;3.47;;
10811;SDS011;5458;51.496;7.334;2023-04-03T03:56:20;5.67;;;3.53;;
10811;SDS011;5458;51.496;7.334;2023-04-03T03:58:46;5.87;;;3.50;;
10811;SDS011;5458;51.496;7.334;2023-04-03T04:01:11;6.30;;;3.35;;
10811;SDS011;5458;51.496;7.334;2023-04-03T04:03:37;5.77;;;3.70;;
10811;SDS011;5458;51.496;7.334;2023-04-03T04:06:02;6.53;;;3.50;;
10811;SDS011;5458;51.496;7.334;2023-04-03T04:08:28;5.77;;;3.47;;
10811;SDS011;5458;51.496;7.334;2023-04-03T04:10:54;5.03;;;3.40;;
10811;SDS011;5458;51.496;7.334;2023-04-03T04:13:19;4.17;;;3.57;;
10811;SDS011;5458;51.496;7.334;2023-04-03T04:15:45;6.93;;;3.88;;
10811;SDS011;5458;51.496;7.334;2023-04-03T04:18:11;4.87;;;3.40;;
10811;SDS011;5458;51.496;7.334;2023-04-03T04:20:36;4.90;;;3.72;;
10811;SDS011;5458;51.496;7.334;2023-04-03T04:23:02;5.30;;;3.33;;
10811;SDS011;5458;51.496;7.334;2023-04-03T04:25:28;3.70;;;3.40;;
10811;SDS011;5458;51.496;7.334;2023-04-03T04:27:53;5.00;;;3.73;;
10811;SDS011;5458;51.496;7.334;2023-04-03T04:30:19;7.65;;;3.83;;
10811;SDS011;5458;51.496;7.334;2023-04-03T04:32:44;4.30;;;3.53;;
10811;SDS011;5458;51.496;7.334;2023-04-03T04:35:10;6.00;;;4.17;;
10811;SDS011;5458;51.496;7.334;2023-04-03T04:37:36;6.22;;;4.30;;
10811;SDS011;5458;51.496;7.334;2023-04-03T04:40:02;5.88;;;3.75;;
10811;SDS011;5458;51.496;7.334;2023-04-03T04:42:28;4.53;;;3.40;;
10811;SDS011;5458;51.496;7.334;2023-04-03T04:44:53;4.27;;;3.53;;
10811;SDS011;5458;51.496;7.334;2023-04-03T04:47:19;4.97;;;3.33;;
10811;SDS011;5458;51.496;7.334;2023-04-03T04:49:45;3.63;;;3.33;;
10811;SDS011;5458;51.496;7.334;2023-04-03T04:52:12;7.67;;;3.70;;
10811;SDS011;5458;51.496;7.334;2023-04-03T04:54:38;3.33;;;2.83;;
10811;SDS011;5458;51.496;7.334;2023-04-03T04:57:03;5.03;;;3.23;;
10811;SDS011;5458;51.496;7.334;2023-04-03T04:59:29;4.10;;;3.72;;
10811;SDS011;5458;51.496;7.334;2023-04-03T05:01:54;6.28;;;3.53;;
10811;SDS011;5458;51.496;7.334;2023-04-03T05:04:20;5.40;;;3.57;;
10811;SDS011;5458;51.496;7.334;2023-04-03T05:06:45;3.70;;;2.90;;
10811;SDS011;5458;51.496;7.334;2023-04-03T05:09:11;5.70;;;3.25;;
10811;SDS011;5458;51.496;7.334;2023-04-03T05:11:37;4.75;;;3.00;;
10811;SDS011;5458;51.496;7.334;2023-04-03T05:14:03;4.20;;;3.20;;
10811;SDS011;5458;51.496;7.334;2023-04-03T05:16:31;6.50;;;3.17;;
10811;SDS011;5458;51.496;7.334;2023-04-03T05:18:57;5.70;;;3.38;;
10811;SDS011;5458;51.496;7.334;2023-04-03T05:21:22;5.90;;;3.50;;
10811;SDS011;5458;51.496;7.334;2023-04-03T05:23:50;4.72;;;2.80;;
10811;SDS011;5458;51.496;7.334;2023-04-03T05:26:16;5.23;;;3.87;;
10811;SDS011;5458;51.496;7.334;2023-04-03T05:28:42;5.05;;;3.60;;
10811;SDS011;5458;51.496;7.334;2023-04-03T05:31:08;5.35;;;3.28;;
10811;SDS011;5458;51.496;7.334;2023-04-03T05:33:33;6.60;;;3.38;;
10811;SDS011;5458;51.496;7.334;2023-04-03T05:36:06;6.07;;;3.57;;
10811;SDS011;5458;51.496;7.334;2023-04-03T05:38:32;4.97;;;3.40;;
10811;SDS011;5458;51.496;7.334;2023-04-03T05:40:57;5.07;;;3.40;;
10811;SDS011;5458;51.496;7.334;2023-04-03T05:43:23;4.03;;;3.73;;
10811;SDS011;5458;51.496;7.334;2023-04-03T05:45:49;4.93;;;3.53;;
10811;SDS011;5458;51.496;7.334;2023-04-03T05:48:16;7.38;;;3.40;;
10811;SDS011;5458;51.496;7.334;2023-04-03T05:50:41;6.22;;;3.65;;
10811;SDS011;5458;51.496;7.334;2023-04-03T05:53:07;5.25;;;3.30;;
10811;SDS011;5458;51.496;7.334;2023-04-03T05:55:42;7.72;;;3.60;;
10811;SDS011;5458;51.496;7.334;2023-04-03T05:58:08;6.50;;;3.40;;
10811;SDS011;5458;51.496;7.334;2023-04-03T06:00:33;4.47;;;3.70;;
10811;SDS011;5458;51.496;7.334;2023-04-03T06:02:59;4.63;;;3.83;;
10811;SDS011;5458;51.496;7.334;2023-04-03T06:05:25;4.03;;;3.50;;
10811;SDS011;5458;51.496;7.334;2023-04-03T06:07:51;6.05;;;3.72;;
10811;SDS011;5458;51.496;7.334;2023-04-03T06:10:16;5.75;;;4.18;;
10811;SDS011;5458;51.496;7.334;2023-04-03T06:12:42;4.82;;;3.22;;
10811;SDS011;5458;51.496;7.334;2023-04-03T06:15:08;4.07;;;2.92;;
10811;SDS011;5458;51.496;7.334;2023-04-03T06:17:35;5.30;;;2.97;;
10811;SDS011;5458;51.496;7.334;2023-04-03T06:20:02;6.57;;;3.42;;
10811;SDS011;5458;51.496;7.334;2023-04-03T06:22:28;5.43;;;3.00;;
10811;SDS011;5458;51.496;7.334;2023-04-03T06:24:55;4.32;;;2.85;;
10811;SDS011;5458;51.496;7.334;2023-04-03T06:27:21;6.57;;;2.90;;
10811;SDS011;5458;51.496;7.334;2023-04-03T06:29:46;6.25;;;2.45;;
10811;SDS011;5458;51.496;7.334;2023-04-03T06:32:13;6.00;;;2.40;;
10811;SDS011;5458;51.496;7.334;2023-04-03T06:34:39;4.75;;;2.63;;
10811;SDS011;5458;51.496;7.334;2023-04-03T06:37:05;4.70;;;2.63;;
10811;SDS011;5458;51.496;7.334;2023-04-03T06:39:31;4.35;;;2.28;;
10811;SDS011;5458;51.496;7.334;2023-04-03T06:41:57;3.67;;;2.40;;
10811;SDS011;5458;51.496;7.334;2023-04-03T06:44:23;4.28;;;2.13;;
10811;SDS011;5458;51.496;7.334;2023-04-03T06:46:48;6.45;;;2.55;;
10811;SDS011;5458;51.496;7.334;2023-04-03T06:49:14;5.03;;;2.50;;
10811;SDS011;5458;51.496;7.334;2023-04-03T06:54:27;6.03;;;2.25;;
10811;SDS011;5458;51.496;7.334;2023-04-03T06:56:53;5.20;;;2.40;;
10811;SDS011;5458;51.496;7.334;2023-04-03T06:59:19;4.22;;;2.40;;
10811;SDS011;5458;51.496;7.334;2023-04-03T07:01:44;4.25;;;2.30;;
10811;SDS011;5458;51.496;7.334;2023-04-03T07:04:11;2.72;;;1.85;;
10811;SDS011;5458;51.496;7.334;2023-04-03T07:06:36;4.47;;;2.33;;
10811;SDS011;5458;51.496;7.334;2023-04-03T07:11:37;4.25;;;2.30;;
10811;SDS011;5458;51.496;7.334;2023-04-03T07:14:03;4.35;;;1.75;;
10811;SDS011;5458;51.496;7.334;2023-04-03T07:16:29;4.00;;;2.13;;
10811;SDS011;5458;51.496;7.334;2023-04-03T07:18:57;4.18;;;2.25;;
10811;SDS011;5458;51.496;7.334;2023-04-03T07:21:23;2.75;;;1.98;;
10811;SDS011;5458;51.496;7.334;2023-04-03T07:23:49;5.03;;;2.53;;
10811;SDS011;5458;51.496;7.334;2023-04-03T07:26:15;4.00;;;2.10;;
10811;SDS011;5458;51.496;7.334;2023-04-03T07:28:40;3.45;;;1.80;;
10811;SDS011;5458;51.496;7.334;2023-04-03T07:31:07;3.97;;;1.88;;
10811;SDS011;5458;51.496;7.334;2023-04-03T07:33:37;3.33;;;2.33;;
10811;SDS011;5458;51.496;7.334;2023-04-03T07:36:03;4.65;;;2.20;;
10811;SDS011;5458;51.496;7.334;2023-04-03T07:38:32;3.88;;;1.90;;
10811;SDS011;5458;51.496;7.334;2023-04-03T07:40:58;3.97;;;1.70;;
10811;SDS011;5458;51.496;7.334;2023-04-03T07:43:23;3.55;;;1.80;;
10811;SDS011;5458;51.496;7.334;2023-04-03T07:45:50;3.00;;;1.83;;
10811;SDS011;5458;51.496;7.334;2023-04-03T07:48:17;2.85;;;1.83;;
10811;SDS011;5458;51.496;7.334;2023-04-03T07:50:43;2.40;;;1.70;;
10811;SDS011;5458;51.496;7.334;2023-04-03T07:53:09;5.50;;;2.20;;
10811;SDS011;5458;51.496;7.334;2023-04-03T07:55:35;4.28;;;2.10;;
10811;SDS011;5458;51.496;7.334;2023-04-03T07:58:07;4.45;;;2.35;;
10811;SDS011;5458;51.496;7.334;2023-04-03T08:00:34;3.65;;;1.63;;
10811;SDS011;5458;51.496;7.334;2023-04-03T08:03:00;4.35;;;2.05;;
10811;SDS011;5458;51.496;7.334;2023-04-03T08:05:26;3.97;;;2.00;;
10811;SDS011;5458;51.496;7.334;2023-04-03T08:07:52;2.15;;;1.42;;
10811;SDS011;5458;51.496;7.334;2023-04-03T08:10:17;4.25;;;1.98;;
10811;SDS011;5458;51.496;7.334;2023-04-03T08:12:45;4.03;;;1.92;;
10811;SDS011;5458;51.496;7.334;2023-04-03T08:15:13;3.10;;;1.77;;
10811;SDS011;5458;51.496;7.334;2023-04-03T08:17:39;4.88;;;1.90;;
10811;SDS011;5458;51.496;7.334;2023-04-03T08:20:05;3.92;;;1.60;;
10811;SDS011;5458;51.496;7.334;2023-04-03T08:22:32;4.10;;;1.65;;
10811;SDS011;5458;51.496;7.334;2023-04-03T08:24:58;3.15;;;1.50;;
10811;SDS011;5458;51.496;7.334;2023-04-03T08:27:23;4.60;;;1.83;;
10811;SDS011;5458;51.496;7.334;2023-04-03T08:29:49;4.47;;;2.30;;
10811;SDS011;5458;51.496;7.334;2023-04-03T08:32:16;2.92;;;1.90;;
10811;SDS011;5458;51.496;7.334;2023-04-03T08:34:41;6.07;;;2.15;;
10811;SDS011;5458;51.496;7.334;2023-04-03T08:37:07;4.57;;;1.85;;
10811;SDS011;5458;51.496;7.334;2023-04-03T08:39:32;4.55;;;1.55;;
10811;SDS011;5458;51.496;7.334;2023-04-03T08:41:58;3.78;;;1.50;;
10811;SDS011;5458;51.496;7.334;2023-04-03T08:44:46;4.47;;;1.58;;
10811;SDS011;5458;51.496;7.334;2023-04-03T08:47:28;3.25;;;1.60;;
10811;SDS011;5458;51.496;7.334;2023-04-03T08:50:00;4.65;;;1.50;;
10811;SDS011;5458;51.496;7.334;2023-04-03T08:52:42;4.00;;;1.92;;
10811;SDS011;5458;51.496;7.334;2023-04-03T08:57:59;3.38;;;1.33;;
10811;SDS011;5458;51.496;7.334;2023-04-03T09:00:29;3.55;;;1.85;;
10811;SDS011;5458;51.496;7.334;2023-04-03T09:03:16;2.85;;;1.83;;
10811;SDS011;5458;51.496;7.334;2023-04-03T09:05:46;2.30;;;1.30;;
10811;SDS011;5458;51.496;7.334;2023-04-03T09:14:02;2.67;;;1.42;;
10811;SDS011;5458;51.496;7.334;2023-04-03T09:16:49;2.35;;;1.33;;
10811;SDS011;5458;51.496;7.334;2023-04-03T09:22:03;2.60;;;1.50;;
10811;SDS011;5458;51.496;7.334;2023-04-03T09:24:41;2.50;;;1.50;;
10811;SDS011;5458;51.496;7.334;2023-04-03T09:27:10;3.40;;;1.35;;
10811;SDS011;5458;51.496;7.334;2023-04-03T09:29:39;3.17;;;1.42;;
10811;SDS011;5458;51.496;7.334;2023-04-03T09:32:18;2.92;;;1.40;;
10811;SDS011;5458;51.496;7.334;2023-04-03T09:34:50;2.70;;;1.60;;
10811;SDS011;5458;51.496;7.334;2023-04-03T09:41:02;3.58;;;1.33;;
10811;SDS011;5458;51.496;7.334;2023-04-03T09:43:02;3.22;;;1.55;;
10811;SDS011;5458;51.496;7.334;2023-04-03T09:45:44;1.80;;;1.70;;
10811;SDS011;5458;51.496;7.334;2023-04-03T09:56:02;2.10;;;1.70;;
10811;SDS011;5458;51.496;7.334;2023-04-03T09:58:51;3.42;;;1.65;;
10811;SDS011;5458;51.496;7.334;2023-04-03T10:01:22;2.95;;;1.90;;
10811;SDS011;5458;51.496;7.334;2023-04-03T10:04:15;2.88;;;1.50;;
10811;SDS011;5458;51.496;7.334;2023-04-03T10:06:50;2.22;;;1.85;;
10811;SDS011;5458;51.496;7.334;2023-04-03T10:12:01;3.42;;;2.00;;
10811;SDS011;5458;51.496;7.334;2023-04-03T10:14:39;2.03;;;1.42;;
10811;SDS011;5458;51.496;7.334;2023-04-03T10:19:55;2.67;;;2.08;;
10811;SDS011;5458;51.496;7.334;2023-04-03T10:33:47;1.95;;;1.70;;
10811;SDS011;5458;51.496;7.334;2023-04-03T10:47:21;3.00;;;1.70;;
10811;SDS011;5458;51.496;7.334;2023-04-03T10:52:52;2.90;;;1.55;;
10811;SDS011;5458;51.496;7.334;2023-04-03T10:58:30;2.22;;;1.67;;
10811;SDS011;5458;51.496;7.334;2023-04-03T11:01:09;1.40;;;1.30;;
10811;SDS011;5458;51.496;7.334;2023-04-03T11:03:47;2.65;;;2.00;;
10811;SDS011;5458;51.496;7.334;2023-04-03T11:06:17;4.35;;;1.85;;
10811;SDS011;5458;51.496;7.334;2023-04-03T11:11:17;1.77;;;1.67;;
10811;SDS011;5458;51.496;7.334;2023-04-03T11:16:27;2.78;;;1.55;;
10811;SDS011;5458;51.496;7.334;2023-04-03T11:19:41;1.80;;;1.70;;
10811;SDS011;5458;51.496;7.334;2023-04-03T11:24:41;1.80;;;1.70;;
10811;SDS011;5458;51.496;7.334;2023-04-03T11:27:15;1.60;;;1.50;;
10811;SDS011;5458;51.496;7.334;2023-04-03T11:29:47;2.75;;;1.35;;
10811;SDS011;5458;51.496;7.334;2023-04-03T11:34:55;4.13;;;1.70;;
10811;SDS011;5458;51.496;7.334;2023-04-03T11:37:33;3.80;;;1.73;;
10811;SDS011;5458;51.496;7.334;2023-04-03T11:40:08;2.08;;;1.67;;
10811;SDS011;5458;51.496;7.334;2023-04-03T11:42:48;2.30;;;1.25;;
10811;SDS011;5458;51.496;7.334;2023-04-03T11:50:54;3.85;;;1.67;;
10811;SDS011;5458;51.496;7.334;2023-04-03T12:05:58;2.83;;;2.60;;
10811;SDS011;5458;51.496;7.334;2023-04-03T12:16:21;4.05;;;1.60;;
10811;SDS011;5458;51.496;7.334;2023-04-03T12:26:46;1.67;;;1.58;;
10811;SDS011;5458;51.496;7.334;2023-04-03T12:40:09;1.40;;;1.30;;
10811;SDS011;5458;51.496;7.334;2023-04-03T12:45:40;2.53;;;1.42;;
10811;SDS011;5458;51.496;7.334;2023-04-03T12:48:13;3.03;;;1.42;;
10811;SDS011;5458;51.496;7.334;2023-04-03T12:50:41;2.65;;;1.60;;
10811;SDS011;5458;51.496;7.334;2023-04-03T12:53:14;1.40;;;1.30;;
10811;SDS011;5458;51.496;7.334;2023-04-03T12:55:54;1.73;;;1.42;;
10811;SDS011;5458;51.496;7.334;2023-04-03T12:58:24;2.63;;;1.42;;
10811;SDS011;5458;51.496;7.334;2023-04-03T13:00:59;4.57;;;1.73;;
10811;SDS011;5458;51.496;7.334;2023-04-03T13:03:33;3.55;;;1.65;;
10811;SDS011;5458;51.496;7.334;2023-04-03T13:06:01;1.52;;;1.20;;
10811;SDS011;5458;51.496;7.334;2023-04-03T13:08:28;2.42;;;1.52;;
10811;SDS011;5458;51.496;7.334;2023-04-03T13:10:58;3.00;;;1.75;;
10811;SDS011;5458;51.496;7.334;2023-04-03T13:13:30;3.35;;;1.48;;
10811;SDS011;5458;51.496;7.334;2023-04-03T13:15:56;3.17;;;1.63;;
10811;SDS011;5458;51.496;7.334;2023-04-03T13:18:33;1.70;;;1.40;;
10811;SDS011;5458;51.496;7.334;2023-04-03T13:21:05;2.38;;;1.85;;
10811;SDS011;5458;51.496;7.334;2023-04-03T13:23:45;2.40;;;1.42;;
10811;SDS011;5458;51.496;7.334;2023-04-03T13:26:15;2.10;;;1.33;;
10811;SDS011;5458;51.496;7.334;2023-04-03T13:28:44;1.92;;;1.40;;
10811;SDS011;5458;51.496;7.334;2023-04-03T13:33:43;2.70;;;1.58;;
10811;SDS011;5458;51.496;7.334;2023-04-03T13:37:01;4.80;;;1.58;;
10811;SDS011;5458;51.496;7.334;2023-04-03T13:39:25;1.63;;;1.40;;
10811;SDS011;5458;51.496;7.334;2023-04-03T13:41:54;1.52;;;1.38;;
10811;SDS011;5458;51.496;7.334;2023-04-03T13:44:30;2.78;;;1.48;;
10811;SDS011;5458;51.496;7.334;2023-04-03T13:49:37;1.58;;;1.40;;
10811;SDS011;5458;51.496;7.334;2023-04-03T13:54:51;2.90;;;1.48;;
10811;SDS011;5458;51.496;7.334;2023-04-03T13:57:20;1.40;;;1.30;;
10811;SDS011;5458;51.496;7.334;2023-04-03T13:59:46;3.17;;;1.38;;
10811;SDS011;5458;51.496;7.334;2023-04-03T14:02:14;2.38;;;1.77;;
10811;SDS011;5458;51.496;7.334;2023-04-03T14:04:47;2.25;;;1.40;;
10811;SDS011;5458;51.496;7.334;2023-04-03T14:07:16;1.73;;;1.40;;
10811;SDS011;5458;51.496;7.334;2023-04-03T14:09:43;4.35;;;1.98;;
10811;SDS011;5458;51.496;7.334;2023-04-03T14:12:12;2.80;;;1.60;;
10811;SDS011;5458;51.496;7.334;2023-04-03T14:14:41;1.80;;;1.40;;
10811;SDS011;5458;51.496;7.334;2023-04-03T14:17:18;1.98;;;1.58;;
10811;SDS011;5458;51.496;7.334;2023-04-03T14:19:46;2.83;;;1.65;;
10811;SDS011;5458;51.496;7.334;2023-04-03T14:22:17;2.00;;;1.55;;
10811;SDS011;5458;51.496;7.334;2023-04-03T14:24:47;4.13;;;2.17;;
10811;SDS011;5458;51.496;7.334;2023-04-03T14:27:18;1.73;;;1.60;;
10811;SDS011;5458;51.496;7.334;2023-04-03T14:29:52;3.80;;;1.67;;
10811;SDS011;5458;51.496;7.334;2023-04-03T14:32:20;3.85;;;1.60;;
10811;SDS011;5458;51.496;7.334;2023-04-03T14:34:47;2.67;;;1.50;;
10811;SDS011;5458;51.496;7.334;2023-04-03T14:37:19;1.73;;;1.52;;
10811;SDS011;5458;51.496;7.334;2023-04-03T14:39:50;1.92;;;1.50;;
10811;SDS011;5458;51.496;7.334;2023-04-03T14:42:19;2.85;;;1.60;;
10811;SDS011;5458;51.496;7.334;2023-04-03T14:44:47;3.05;;;1.70;;
10811;SDS011;5458;51.496;7.334;2023-04-03T14:47:15;2.47;;;1.63;;
10811;SDS011;5458;51.496;7.334;2023-04-03T14:49:43;2.13;;;1.58;;
10811;SDS011;5458;51.496;7.334;2023-04-03T14:52:22;1.80;;;1.70;;
10811;SDS011;5458;51.496;7.334;2023-04-03T14:54:50;2.22;;;1.95;;
10811;SDS011;5458;51.496;7.334;2023-04-03T14:57:17;2.22;;;1.75;;
10811;SDS011;5458;51.496;7.334;2023-04-03T14:59:44;3.00;;;1.77;;
10811;SDS011;5458;51.496;7.334;2023-04-03T15:02:52;3.55;;;2.00;;
10811;SDS011;5458;51.496;7.334;2023-04-03T15:05:04;1.80;;;1.23;;
10811;SDS011;5458;51.496;7.334;2023-04-03T15:07:39;2.20;;;1.65;;
10811;SDS011;5458;51.496;7.334;2023-04-03T15:12:53;2.60;;;1.80;;
10811;SDS011;5458;51.496;7.334;2023-04-03T15:15:20;2.50;;;1.63;;
10811;SDS011;5458;51.496;7.334;2023-04-03T15:17:47;2.28;;;2.00;;
10811;SDS011;5458;51.496;7.334;2023-04-03T15:20:19;2.65;;;1.98;;
10811;SDS011;5458;51.496;7.334;2023-04-03T15:22:46;3.17;;;1.73;;
10811;SDS011;5458;51.496;7.334;2023-04-03T15:25:12;2.08;;;1.88;;
10811;SDS011;5458;51.496;7.334;2023-04-03T15:27:38;2.17;;;2.00;;
10811;SDS011;5458;51.496;7.334;2023-04-03T15:30:05;3.88;;;2.20;;
10811;SDS011;5458;51.496;7.334;2023-04-03T15:32:32;3.13;;;1.90;;
10811;SDS011;5458;51.496;7.334;2023-04-03T15:34:59;2.88;;;1.88;;
10811;SDS011;5458;51.496;7.334;2023-04-03T15:37:24;1.98;;;1.80;;
10811;SDS011;5458;51.496;7.334;2023-04-03T15:39:50;3.67;;;1.90;;
10811;SDS011;5458;51.496;7.334;2023-04-03T15:42:16;2.00;;;1.75;;
10811;SDS011;5458;51.496;7.334;2023-04-03T15:44:42;2.30;;;1.63;;
10811;SDS011;5458;51.496;7.334;2023-04-03T15:47:07;2.70;;;1.95;;
10811;SDS011;5458;51.496;7.334;2023-04-03T15:49:33;2.38;;;1.95;;
10811;SDS011;5458;51.496;7.334;2023-04-03T15:51:59;3.35;;;2.10;;
10811;SDS011;5458;51.496;7.334;2023-04-03T15:54:25;1.80;;;1.70;;
10811;SDS011;5458;51.496;7.334;2023-04-03T15:56:51;3.08;;;2.20;;
10811;SDS011;5458;51.496;7.334;2023-04-03T15:59:17;3.35;;;1.70;;
10811;SDS011;5458;51.496;7.334;2023-04-03T16:01:43;1.98;;;1.83;;
10811;SDS011;5458;51.496;7.334;2023-04-03T16:04:09;1.63;;;1.52;;
10811;SDS011;5458;51.496;7.334;2023-04-03T16:06:35;2.20;;;2.03;;
10811;SDS011;5458;51.496;7.334;2023-04-03T16:09:02;3.28;;;2.20;;
10811;SDS011;5458;51.496;7.334;2023-04-03T16:11:28;4.38;;;1.80;;
10811;SDS011;5458;51.496;7.334;2023-04-03T16:13:54;1.83;;;1.65;;
10811;SDS011;5458;51.496;7.334;2023-04-03T16:16:20;3.00;;;2.10;;
10811;SDS011;5458;51.496;7.334;2023-04-03T16:18:47;3.70;;;2.38;;
10811;SDS011;5458;51.496;7.334;2023-04-03T16:21:13;1.67;;;1.58;;
10811;SDS011;5458;51.496;7.334;2023-04-03T16:23:40;2.67;;;1.73;;
10811;SDS011;5458;51.496;7.334;2023-04-03T16:26:06;3.20;;;2.50;;
10811;SDS011;5458;51.496;7.334;2023-04-03T16:28:33;1.55;;;1.45;;
10811;SDS011;5458;51.496;7.334;2023-04-03T16:30:59;2.00;;;1.60;;
10811;SDS011;5458;51.496;7.334;2023-04-03T16:33:25;2.90;;;1.75;;
10811;SDS011;5458;51.496;7.334;2023-04-03T16:35:51;2.58;;;2.00;;
10811;SDS011;5458;51.496;7.334;2023-04-03T16:38:17;3.63;;;1.73;;
10811;SDS011;5458;51.496;7.334;2023-04-03T16:40:44;3.65;;;1.80;;
10811;SDS011;5458;51.496;7.334;2023-04-03T16:43:10;1.77;;;1.67;;
10811;SDS011;5458;51.496;7.334;2023-04-03T16:45:36;2.47;;;1.60;;
10811;SDS011;5458;51.496;7.334;2023-04-03T16:48:01;3.38;;;3.10;;
10811;SDS011;5458;51.496;7.334;2023-04-03T16:50:27;5.18;;;2.15;;
10811;SDS011;5458;51.496;7.334;2023-04-03T16:52:53;2.65;;;1.85;;
10811;SDS011;5458;51.496;7.334;2023-04-03T16:55:19;4.15;;;2.10;;
10811;SDS011;5458;51.496;7.334;2023-04-03T16:57:45;2.22;;;1.80;;
10811;SDS011;5458;51.496;7.334;2023-04-03T17:00:11;3.55;;;2.00;;
10811;SDS011;5458;51.496;7.334;2023-04-03T17:02:38;3.33;;;1.60;;
10811;SDS011;5458;51.496;7.334;2023-04-03T17:05:04;2.15;;;1.60;;
10811;SDS011;5458;51.496;7.334;2023-04-03T17:07:30;1.80;;;1.70;;
10811;SDS011;5458;51.496;7.334;2023-04-03T17:09:56;2.08;;;1.88;;
10811;SDS011;5458;51.496;7.334;2023-04-03T17:12:22;3.13;;;2.05;;
10811;SDS011;5458;51.496;7.334;2023-04-03T17:14:48;3.45;;;2.08;;
10811;SDS011;5458;51.496;7.334;2023-04-03T17:17:14;3.95;;;2.00;;
10811;SDS011;5458;51.496;7.334;2023-04-03T17:19:39;2.33;;;1.80;;
10811;SDS011;5458;51.496;7.334;2023-04-03T17:22:08;3.47;;;1.75;;
10811;SDS011;5458;51.496;7.334;2023-04-03T17:24:34;2.78;;;1.90;;
10811;SDS011;5458;51.496;7.334;2023-04-03T17:27:00;2.05;;;1.90;;
10811;SDS011;5458;51.496;7.334;2023-04-03T17:29:26;2.05;;;1.88;;